• Join FlightAware (Why Join?)
  • Login
  • US Flag 
03:17AM EDT


 

Airport Tracker/Info


-or-


 

Live Flight TrackerFlight Track Log ✈ NKS464 ✈ 20-May-2013 ✈ KFLL - KORD

Flight Track Log - Related Links

Times and Time Zones

All times are in EDT time to prevent confusion due to time zone crossing. See the NKS464 flight status page for this flight to view local times or setup timezone preferences in your user account.

Time Position Orientation Groundspeed Altitude Reporting Facility
EDT Latitude Longitude Course Direction KTS MPH feet Rate Location/Type
08:42PM 26.0830 -80.1220 76° East 157 181 1,600  Level FlightAware
08:43PM 26.0780 -80.1000 104° East 176 203 2,200 1,080 Climbing FlightAware
08:43PM 26.0680 -80.0770 116° Southeast 213 245 2,600 1,260 Climbing FlightAware
08:44PM 26.0550 -80.0430 113° Southeast 254 292 3,400 2,100 Climbing FlightAware
08:44PM 26.0540 -80.0320 96° East 251 289 4,000 3,420 Climbing FlightAware
08:44PM 26.0700 -79.9970 63° Northeast 253 291 5,700 3,180 Climbing FlightAware
08:45PM 26.0870 -79.9900 20° North 262 302 6,400 2,700 Climbing FlightAware
08:45PM 26.1200 -79.9950 352° North 289 333 7,500 3,000 Climbing FlightAware
08:46PM 26.1580 -80.0070 344° North 285 328 9,200 2,880 Climbing FlightAware
08:46PM 26.2120 -80.0380 333° Northwest 295 339 11,100 2,280 Climbing FlightAware
08:47PM 26.2500 -80.0770 317° Northwest 326 375 12,300 1,620 Climbing FlightAware
08:48PM 26.3030 -80.1310 318° Northwest 355 409 13,300 1,800 Climbing FlightAware
08:48PM 26.3400 -80.1690 317° Northwest 358 412 14,600 2,640 Climbing FlightAware
08:49PM 26.4000 -80.2190 323° Northwest 367 422 16,600 2,160 Climbing FlightAware
08:49PM 26.4460 -80.2420 336° Northwest 375 432 17,300 1,560 Climbing FlightAware
08:50PM 26.5300 -80.2850 335° Northwest 393 452 18,700 1,620 Climbing FlightAware
08:51PM 26.6070 -80.3240 336° Northwest 408 470 19,900 1,740 Climbing FlightAware
08:52PM 26.6780 -80.3600 336° Northwest 409 471 21,200 2,220 Climbing FlightAware
08:52PM 26.7450 -80.3940 336° Northwest 405 466 22,900 1,920 Climbing FlightAware
08:53PM 26.8200 -80.4330 335° Northwest 409 471 24,000 780 Climbing FlightAware
08:54PM 26.8770 -80.4630 335° Northwest 409 471 24,000  Level FlightAware
08:54PM 26.9500 -80.5010 335° Northwest 409 471 24,000  Level FlightAware
08:55PM 27.0080 -80.5310 335° Northwest 409 471 24,000  Level FlightAware
08:56PM 27.0660 -80.5620 335° Northwest 409 471 24,000  Level FlightAware
08:56PM 27.1250 -80.5930 335° Northwest 409 471 24,000 3,660 Level FlightAware
08:57PM 27.2897 -80.5167 335° Northwest 431 496 28,700 3,600 Climbing Miami Center
08:58PM 27.4122 -80.5392 351° North 436 502 29,900 960 Climbing Miami Center
09:04PM 28.0570 -80.7880 351° North 443 510 35,000 780 Climbing FlightAware
09:04PM 28.1280 -80.8310 332° Northwest 442 509 35,000  Level FlightAware
09:05PM 28.2110 -80.8820 332° Northwest 443 510 35,000  Level FlightAware
09:06PM 28.2830 -80.9270 331° Northwest 445 512 35,000  Level FlightAware
09:06PM 28.3630 -80.9760 332° Northwest 450 518 35,000  Level FlightAware
09:07PM 28.4380 -81.0220 332° Northwest 455 524 35,000  Level FlightAware
09:08PM 28.5240 -81.0750 332° Northwest 458 527 35,000  Level FlightAware
09:08PM 28.5940 -81.1190 331° Northwest 457 526 35,000  Level FlightAware
09:09PM 28.6600 -81.1600 331° Northwest 458 527 35,000  Level FlightAware
09:10PM 28.5530 -81.0940 152° Southeast 35,100  Climbing FlightAware
09:10PM 28.5950 -81.1200 331° Northwest 458 527 35,000  Descending FlightAware
09:11PM 28.6520 -81.1550 332° Northwest 458 527 35,100  Climbing FlightAware
09:12PM 28.7210 -81.1980 331° Northwest 458 527 35,000 -120 Descending FlightAware
09:12PM 28.8010 -81.2480 331° Northwest 457 526 35,000  Level FlightAware
09:13PM 28.8870 -81.3010 332° Northwest 455 524 35,000  Level FlightAware
09:14PM 28.9350 -81.3300 332° Northwest 457 526 35,000  Level FlightAware
09:15PM 29.0270 -81.3770 336° Northwest 457 526 35,000  Level FlightAware
09:15PM 29.0920 -81.4120 335° Northwest 457 526 35,000  Level FlightAware
09:16PM 29.1570 -81.4470 335° Northwest 457 526 35,000  Level FlightAware
09:17PM 29.2220 -81.4820 335° Northwest 457 526 35,000  Level FlightAware
09:17PM 29.2880 -81.5170 335° Northwest 457 526 35,000  Level FlightAware
09:18PM 29.7650 -81.4040 12° North 462 532 35,000  Level FlightAware
09:19PM 29.8560 -81.4060 359° North 35,000  Level FlightAware
09:20PM 29.9630 -81.4080 359° North 455 524 35,000  Level FlightAware
09:20PM 30.0680 -81.4100 359° North 453 521 35,000  Level FlightAware
09:21PM 30.1570 -81.4120 359° North 453 521 35,000  Level FlightAware
09:22PM 30.2660 -81.4150 359° North 463 533 35,000  Level FlightAware
09:23PM 30.3550 -81.4160 359° North 473 544 35,000  Level FlightAware
09:23PM 30.4370 -81.4180 359° North 474 545 35,000  Level FlightAware
09:24PM 30.5120 -81.4200 359° North 474 545 35,000  Level FlightAware
09:25PM 30.6050 -81.4210 359° North 474 545 35,000  Level FlightAware
09:25PM 30.6790 -81.4230 359° North 474 545 35,000  Level FlightAware
09:26PM 30.7540 -81.4240 359° North 474 545 35,000  Level FlightAware
09:27PM 30.8290 -81.4260 359° North 474 545 35,000  Level FlightAware
09:27PM 30.9370 -81.3700 24° Northeast 473 544 35,000  Level FlightAware
09:28PM 31.0460 -81.3580 North 472 543 35,000  Level FlightAware
09:29PM 31.1340 -81.3490 North 469 540 35,000  Level FlightAware
09:29PM 31.2350 -81.3390 North 469 540 35,000  Level FlightAware
09:30PM 31.3610 -81.3250 North 465 535 35,000  Level FlightAware
09:31PM 31.4340 -81.3170 North 463 533 35,000  Level FlightAware
09:32PM 31.5280 -81.3070 North 460 529 35,000  Level FlightAware
09:32PM 31.5970 -81.3000 North 460 529 35,000  Level FlightAware
09:33PM 31.7310 -81.2860 North 458 527 35,000  Level FlightAware
09:34PM 31.8370 -81.2740 North 459 528 35,000  Level FlightAware
09:35PM 31.9230 -81.2650 North 457 526 35,000  Level FlightAware
09:35PM 32.0100 -81.2560 North 457 526 35,000  Level FlightAware
09:36PM 32.0940 -81.2470 North 459 528 35,000  Level FlightAware
09:37PM 32.1770 -81.2380 North 460 529 35,000  Level FlightAware
09:38PM 32.2840 -81.2270 North 460 529 35,000  Level FlightAware
09:38PM 32.3890 -81.2150 North 461 531 35,000  Level FlightAware
09:39PM 32.4770 -81.2060 North 461 531 35,000  Level FlightAware
09:41PM 32.6540 -81.2110 359° North 463 533 35,000  Level FlightAware
09:41PM 32.7380 -81.2310 349° North 465 535 35,000  Level FlightAware
09:42PM 32.8440 -81.2550 349° North 465 535 35,000  Level FlightAware
09:43PM 32.9300 -81.2750 349° North 465 535 35,000  Level FlightAware
09:43PM 33.0240 -81.2970 349° North 464 534 35,000  Level FlightAware
09:44PM 33.1070 -81.3160 349° North 464 534 35,000  Level FlightAware
09:45PM 33.1920 -81.3360 349° North 464 534 35,000  Level FlightAware
09:46PM 33.2830 -81.3580 349° North 464 534 35,000  Level FlightAware
09:46PM 33.3630 -81.3770 349° North 465 535 35,000  Level FlightAware
09:47PM 33.4660 -81.4010 349° North 466 536 35,000  Level FlightAware
09:48PM 33.5510 -81.4210 349° North 468 539 35,000  Level FlightAware
09:48PM 33.6460 -81.4440 349° North 468 539 35,000  Level FlightAware
09:49PM 33.7320 -81.4640 349° North 468 539 35,000  Level FlightAware
09:50PM 33.8260 -81.4860 349° North 470 541 35,000  Level FlightAware
09:50PM 33.9120 -81.5070 349° North 470 541 35,000  Level FlightAware
09:51PM 33.9970 -81.5280 348° North 470 541 35,000  Level FlightAware
09:52PM 34.0920 -81.5500 349° North 470 541 35,000  Level FlightAware
09:53PM 34.1790 -81.5710 349° North 471 542 35,000  Level FlightAware
09:53PM 34.2740 -81.5940 349° North 472 543 35,000 120 Level FlightAware
09:54PM 34.3610 -81.6150 349° North 472 543 35,200 720 Climbing FlightAware
09:55PM 34.4430 -81.6340 349° North 460 529 36,000 540 Climbing FlightAware
09:55PM 34.5370 -81.6570 349° North 454 522 36,000  Level FlightAware
09:56PM 34.6200 -81.6770 349° North 460 529 36,000  Level FlightAware
09:57PM 34.6990 -81.6970 348° North 462 532 36,000  Level FlightAware
09:57PM 34.7883 -81.7185 349° North 461 531 36,000  Level FlightAware ADS-B
09:58PM 34.8577 -81.7357 349° North 462 532 36,000  Level FlightAware ADS-B
09:58PM 34.9211 -81.7513 349° North 464 534 36,000  Level FlightAware ADS-B
09:59PM 34.9854 -81.7669 349° North 465 535 36,000 60 Level FlightAware ADS-B
09:59PM 35.0497 -81.7825 349° North 463 533 36,100  Climbing FlightAware ADS-B
10:00PM 35.1135 -81.7982 349° North 462 532 36,000 -120 Descending FlightAware ADS-B
10:00PM 35.1767 -81.8138 349° North 460 529 36,000  Level FlightAware ADS-B
10:01PM 35.2391 -81.8291 349° North 458 527 36,000  Level FlightAware ADS-B
10:01PM 35.3021 -81.8448 349° North 458 527 36,000  Level FlightAware ADS-B
10:02PM 35.3644 -81.8601 349° North 457 526 36,000  Level FlightAware ADS-B
10:02PM 35.4267 -81.8755 349° North 455 524 36,000  Level FlightAware ADS-B
10:03PM 35.4886 -81.8909 349° North 453 521 36,000  Level FlightAware ADS-B
10:03PM 35.5516 -81.9064 349° North 451 519 36,000  Level FlightAware ADS-B
10:04PM 35.6160 -81.9225 349° North 448 516 36,000  Level FlightAware ADS-B
10:04PM 35.6774 -81.9378 349° North 446 513 36,000  Level FlightAware ADS-B
10:05PM 35.7509 -81.9561 349° North 446 513 36,000  Level FlightAware ADS-B
10:06PM 35.8122 -81.9715 348° North 446 513 36,000 -120 Level FlightAware ADS-B
10:06PM 35.8735 -81.9868 349° North 447 514 35,900  Descending FlightAware ADS-B
10:07PM 35.9359 -82.0027 348° North 448 516 36,000 60 Climbing FlightAware ADS-B
10:07PM 35.9999 -82.0189 348° North 449 517 36,000  Level FlightAware ADS-B
10:08PM 36.0620 -82.0344 349° North 451 519 36,000  Level FlightAware ADS-B
10:08PM 36.1513 -82.0569 349° North 450 518 36,000  Level FlightAware ADS-B
10:09PM 36.2159 -82.0731 349° North 452 520 36,000  Level FlightAware ADS-B
10:09PM 36.2782 -82.0889 348° North 453 521 36,000  Level FlightAware ADS-B
10:10PM 36.3450 -82.1057 349° North 452 520 36,000  Level FlightAware ADS-B
10:10PM 36.3769 -82.1122 351° North 454 522 36,000  Level FlightAware ADS-B
10:10PM 36.4095 -82.1163 354° North 455 524 36,000  Level FlightAware ADS-B
10:11PM 36.4530 -82.1184 358° North 458 527 36,000  Level FlightAware ADS-B
10:11PM 36.4961 -82.1166 North 461 531 36,000  Level FlightAware ADS-B
10:12PM 36.5617 -82.1064 North 463 533 36,000  Level FlightAware ADS-B
10:12PM 36.6299 -82.0937 North 463 533 36,000  Level FlightAware ADS-B
10:13PM 36.6961 -82.0818 North 463 533 36,000  Level FlightAware ADS-B
10:13PM 36.7677 -82.0687 North 462 532 36,000  Level FlightAware ADS-B
10:14PM 36.8604 -82.0514 North 458 527 36,000  Level FlightAware ADS-B
10:14PM 36.9255 -82.0436 North 450 518 36,000  Level FlightAware ADS-B
10:15PM 36.9445 -82.0465 353° North 446 513 36,000  Level FlightAware ADS-B
10:16PM 37.0537 -82.1129 334° Northwest 435 501 36,000  Level FlightAware ADS-B
10:16PM 37.1135 -82.1561 330° Northwest 432 497 36,000 -120 Level FlightAware ADS-B
10:17PM 37.1782 -82.2033 330° Northwest 430 495 35,900  Descending FlightAware ADS-B
10:17PM 37.2302 -82.2416 330° Northwest 430 495 36,000 60 Climbing FlightAware ADS-B
10:18PM 37.2874 -82.2841 329° Northwest 432 497 36,000  Level FlightAware ADS-B
10:18PM 37.3410 -82.3239 329° Northwest 433 498 36,000  Level FlightAware ADS-B
10:19PM 37.3993 -82.3671 330° Northwest 433 498 36,000  Level FlightAware ADS-B
10:20PM 37.4523 -82.4067 329° Northwest 434 499 36,000  Level FlightAware ADS-B
10:20PM 37.5240 -82.4610 329° Northwest 434 499 36,000  Level FlightAware
10:21PM 37.5654 -82.4911 330° Northwest 434 499 36,000  Level FlightAware ADS-B
10:21PM 37.6176 -82.5303 329° Northwest 433 498 36,000  Level FlightAware ADS-B
10:22PM 37.6705 -82.5701 329° Northwest 433 498 36,000  Level FlightAware ADS-B
10:22PM 37.7307 -82.6151 329° Northwest 432 497 36,000  Level FlightAware ADS-B
10:23PM 37.7858 -82.6565 329° Northwest 432 497 36,000  Level FlightAware ADS-B
10:23PM 37.8389 -82.6964 329° Northwest 434 499 36,000  Level FlightAware ADS-B
10:24PM 37.8932 -82.7373 329° Northwest 435 501 36,000  Level FlightAware ADS-B
10:24PM 37.9614 -82.7887 329° Northwest 436 502 36,000  Level FlightAware ADS-B
10:25PM 38.0410 -82.8490 329° Northwest 438 504 36,000  Level FlightAware
10:25PM 38.0527 -82.8577 330° Northwest 438 504 36,000  Level FlightAware ADS-B
10:26PM 38.1121 -82.9027 329° Northwest 439 505 36,000  Level FlightAware ADS-B
10:27PM 38.1870 -82.9600 329° Northwest 437 503 36,000  Level FlightAware
10:27PM 38.2084 -82.9763 329° Northwest 438 504 36,000  Level FlightAware ADS-B
10:27PM 38.2630 -83.0179 329° Northwest 439 505 36,000  Level FlightAware ADS-B
10:28PM 38.3176 -83.0594 329° Northwest 438 504 36,000  Level FlightAware ADS-B
10:28PM 38.3843 -83.1103 329° Northwest 437 503 36,000  Level FlightAware ADS-B
10:29PM 38.4790 -83.1830 329° Northwest 435 501 36,000  Level FlightAware
10:30PM 38.5370 -83.2290 328° Northwest 435 501 36,000  Level FlightAware
10:31PM 38.6100 -83.2870 328° Northwest 435 501 36,000  Level FlightAware
10:32PM 38.6680 -83.3330 328° Northwest 435 501 36,000  Level FlightAware
10:32PM 38.7260 -83.3800 328° Northwest 435 501 36,000  Level FlightAware
10:33PM 38.8430 -83.4640 331° Northwest 436 502 36,000  Level FlightAware
10:34PM 38.9130 -83.5180 329° Northwest 434 499 36,000  Level FlightAware
10:34PM 38.9840 -83.5740 328° Northwest 433 498 36,000  Level FlightAware
10:35PM 39.0580 -83.6320 329° Northwest 430 495 36,000  Level FlightAware
10:36PM 39.1270 -83.6860 329° Northwest 429 494 36,000  Level FlightAware
10:36PM 39.1890 -83.7350 329° Northwest 429 494 36,000  Level FlightAware
10:37PM 39.2580 -83.7910 328° Northwest 429 494 36,000  Level FlightAware
10:38PM 39.3390 -83.8530 329° Northwest 426 490 36,000  Level FlightAware
10:39PM 39.4120 -83.9110 328° Northwest 426 490 36,000  Level FlightAware
10:39PM 39.5010 -83.9810 329° Northwest 427 491 36,000  Level FlightAware
10:40PM 39.5750 -84.0400 328° Northwest 428 493 36,000  Level FlightAware
10:41PM 39.6550 -84.1050 328° Northwest 428 493 36,000  Level FlightAware
10:42PM 39.7130 -84.1520 328° Northwest 428 493 36,000  Level FlightAware
10:42PM 39.8000 -84.2200 329° Northwest 427 491 36,000  Level FlightAware
10:43PM 39.8780 -84.2830 328° Northwest 425 489 36,000  Level FlightAware
10:44PM 39.9510 -84.3420 328° Northwest 426 490 36,000  Level FlightAware
10:45PM 40.0120 -84.3920 328° Northwest 427 491 36,000  Level FlightAware
10:45PM 40.0960 -84.4590 329° Northwest 429 494 36,000  Level FlightAware
10:46PM 40.1590 -84.5110 328° Northwest 430 495 36,000  Level FlightAware
10:47PM 40.2380 -84.5750 328° Northwest 431 496 36,000  Level FlightAware
10:47PM 40.3150 -84.6390 328° Northwest 432 497 36,000  Level FlightAware
10:48PM 40.3840 -84.6940 329° Northwest 433 498 36,000  Level FlightAware
10:49PM 40.4520 -84.7500 328° Northwest 436 502 36,000  Level FlightAware
10:49PM 40.5200 -84.8060 328° Northwest 437 503 36,000  Level FlightAware
10:50PM 40.5940 -84.8680 328° Northwest 437 503 36,000  Level FlightAware
10:51PM 40.6750 -84.9340 328° Northwest 438 504 36,000  Level FlightAware
10:52PM 40.7290 -85.0090 314° West 428 493 36,000 -240 Level FlightAware
10:52PM 40.7750 -85.0930 306° West 429 494 35,700 -720 Descending FlightAware
10:53PM 40.8260 -85.1860 306° West 430 495 35,000 -960 Descending FlightAware
10:54PM 40.8730 -85.2720 306° West 432 497 34,400 -1,020 Descending FlightAware
10:54PM 40.9270 -85.3720 306° West 437 503 33,600 -1,080 Descending FlightAware
10:55PM 40.9750 -85.4600 306° West 442 509 32,900 -1,020 Descending FlightAware
10:56PM 41.0230 -85.5480 306° West 443 510 32,300 -960 Descending FlightAware
10:57PM 41.0750 -85.6440 306° West 445 512 31,600 -1,020 Descending FlightAware
10:57PM 41.1180 -85.7250 305° West 445 512 31,000 -1,080 Descending FlightAware
10:58PM 41.1710 -85.8240 305° West 446 513 30,200 -1,020 Descending FlightAware
10:59PM 41.2190 -85.9130 306° West 453 521 29,600 -1,020 Descending FlightAware
10:59PM 41.2730 -86.0150 305° West 460 529 28,800 -1,440 Descending FlightAware
11:00PM 41.3080 -86.1340 291° West 451 519 27,500 -2,340 Descending FlightAware
11:01PM 41.3340 -86.2370 289° West 451 519 25,500 -3,060 Descending FlightAware
11:01PM 41.3620 -86.3480 289° West 453 521 23,200 -3,120 Descending FlightAware
11:02PM 41.3900 -86.4600 288° West 443 510 21,100 -2,820 Descending FlightAware
11:03PM 41.4160 -86.5630 289° West 434 499 19,500 -2,280 Descending FlightAware
11:03PM 41.4400 -86.6630 288° West 432 497 18,100 -2,100 Descending FlightAware
11:04PM 41.4680 -86.7770 288° West 419 482 16,600 -1,980 Descending FlightAware
11:05PM 41.4950 -86.8840 289° West 414 476 15,200 -1,980 Descending FlightAware
11:06PM 41.5190 -86.9840 288° West 412 474 13,800 -1,980 Descending FlightAware
11:06PM 41.5420 -87.0770 288° West 397 457 12,600 -1,140 Descending FlightAware
11:07PM 41.5670 -87.1830 288° West 388 447 12,200 -300 Descending FlightAware
11:08PM 41.5970 -87.2700 295° West 402 463 12,200  Level FlightAware
11:08PM 41.6450 -87.3460 310° West 413 475 12,200  Level FlightAware
11:09PM 41.6990 -87.4320 310° West 398 458 12,200  Level FlightAware
11:10PM 41.7430 -87.5040 309° West 345 397 12,200  Level FlightAware
11:11PM 41.7860 -87.5730 310° West 294 338 12,200  Level FlightAware
11:11PM 41.8170 -87.6250 309° West 265 305 12,200 -540 Level FlightAware
11:12PM 41.8490 -87.6750 311° West 258 297 11,500 -1,560 Descending FlightAware
11:13PM 41.8920 -87.7180 323° Northwest 275 316 10,000 -2,100 Descending FlightAware
11:13PM 41.9260 -87.7200 357° North 279 321 9,100 -1,860 Descending FlightAware
11:14PM 41.9640 -87.7230 357° North 281 323 8,300 -1,140 Descending FlightAware
11:14PM 42.0080 -87.7140 North 263 303 7,800 -1,200 Descending FlightAware
11:15PM 42.0400 -87.6860 33° Northeast 261 300 6,900 -1,800 Descending FlightAware
11:15PM 42.0730 -87.6560 34° Northeast 261 300 6,000 -1,680 Descending FlightAware
11:16PM 42.0960 -87.6340 35° Northeast 255 293 5,400 -1,200 Descending FlightAware
11:16PM 42.1140 -87.6260 18° North 261 300 5,200 -420 Descending FlightAware
11:16PM 42.1300 -87.6230 North 253 291 5,200  Level FlightAware
11:17PM 42.1700 -87.6360 346° North 240 276 5,200 -240 Level FlightAware
11:17PM 42.1760 -87.6580 290° West 212 244 5,000 -1,200 Descending FlightAware
11:17PM 42.1700 -87.6810 251° West 200 230 4,500 -900 Descending FlightAware
11:18PM 42.1550 -87.7180 241° Southwest 199 229 4,200 -480 Descending FlightAware
11:18PM 42.1520 -87.7230 231° Southwest 198 228 4,200 -300 Level FlightAware
11:19PM 42.1250 -87.7550 221° Southwest 197 227 4,000 -600 Descending FlightAware
11:19PM 42.1070 -87.7750 220° Southwest 194 223 3,600 -1,140 Descending FlightAware
11:20PM 42.0860 -87.7980 219° Southwest 193 222 3,000 -1,140 Descending FlightAware
11:20PM 42.0670 -87.8200 221° Southwest 176 203 2,500 -900 Descending FlightAware
11:21PM 42.0520 -87.8370 220° Southwest 146 168 2,200 -660 Descending FlightAware
11:21PM 42.0380 -87.8510 217° Southwest 125 144 1,900 -660 Descending FlightAware
11:21PM 42.0270 -87.8640 221° Southwest 127 146 1,600 -780 Descending FlightAware
11:22PM 42.0130 -87.8790 219° Southwest 129 148 1,200 -720 Descending FlightAware
11:22PM 41.9990 -87.8940 219° Southwest 127 146 900 -600 Descending FlightAware